MYST2: Pat Mayse Lake

Data processed at Sat Dec 15 2018 23:32


All information presented herein is the property of the government of the United States of America and may be revised or deleted at any time without prior notice.
Dissemination of this information without the expressed written consent of the Public Affairs Office, Tulsa District U.S. Army Corps of Engineers is strictly prohibited.
These data are gathered electronically and, as presented, have not undergone any form of quality control. These data are not guaranteed to be valid or correct.
Go to home page.
Go to station list.
Go to home page.

Downstream station:


Previous Day
Next Day
Current Day
    
SHEF ID:       MYST2     Pat Mayse Lake
STATION TYPE:  RESERVOIR
Normal Pool:  Bottom =   415.00, Top =   451.00

               PRECIP PRECIP(A) ELEVATION   STORAGE    INFLOW   RELEASE  AIR-TEMP  WIND-DIRWIND-SPEED REL-HUMID SOLAR-RAD   VOLTAGE  BAT-LOAD
                   in        in        ft     ac-ft       cfs       cfs         F       deg       mph         %      W/m2      volt      volt
              Ccp-Rev   Ccp-Rev   Ccp-Rev   Ccp-Rev  Regi-Rev  Regi-Rev   Ccp-Rev   Ccp-Rev   Ccp-Rev   Ccp-Rev   Ccp-Rev   Ccp-Rev   Ccp-Rev
(US/Central)
12/15 00:00      0.00      ----    452.75    128052      1266       259     45.34    317.70     15.30     62.22      0.00     11.49     11.22
12/15 01:00      0.00      ----    452.76    128112      1558       262     44.44    314.40     11.50     55.43      0.00     11.49     11.22
12/15 02:00      0.00      ----    452.77    128171      1274       264     43.09    310.70     11.60     55.18      0.00     11.48     11.22
12/15 03:00      0.00      ----    452.81    128409      1421       270     41.88    310.70     12.10     52.73      0.00     11.48     11.22
12/15 04:00      0.00      ----    452.81    128409      1569       274     40.42    308.10     12.40     53.20      0.00     11.47     11.22
12/15 05:00      0.00      ----    452.83    128528      2006       277     38.80    312.20     12.10     51.65      0.00     11.47     11.22
12/15 06:00      0.00      ----    452.85    128647      1579       282     37.69    315.80     10.40     50.32      0.00     11.46     11.22
12/15 07:00      0.00      ----    452.89    128885      1872       289     36.97    310.90     10.70     52.45      0.00     11.46     11.22
12/15 08:00      0.00      ----    452.90    128945      1733       295     36.28    303.10     11.60     51.74     11.50     11.53     11.22
12/15 09:00      0.00      ----    452.92    129064      1449       298     37.42    304.20     12.30     49.52    159.00     12.00     11.30
12/15 10:00      0.00      ----    452.93    129123      1165       302     39.43    295.10     13.20     46.62    330.60     12.24     11.77
12/15 11:00      0.00      ----    452.93    129123      1312       303     42.60    306.10     11.70     39.32    462.70     12.44     11.93
12/15 12:00      0.00      ----    452.95    129242      1027       306     46.53    296.20     12.30     42.34    541.40     12.78     12.09
12/15 13:00      0.00      ----    452.97    129361      1029       310     49.57    293.30     12.90     37.52    569.50     12.78     12.49
12/15 14:00      0.00      ----    452.97    129361      1320       313     53.69    305.10     12.00     30.15    529.30     12.71     12.49
12/15 15:00      0.00      ----    452.98    129421      1035       314     56.05    305.30     13.20     24.76    430.00     12.54     12.41
12/15 16:00      0.00      ----    453.00    129540       749       318     58.14    309.20      9.60     20.08    272.20     12.29     12.17
12/15 17:00      0.00      ----    453.00    129540       900       320     57.20    292.20      7.30     23.86     92.20     12.01     12.01
12/15 18:00      0.00      ----    453.00    129540       757       320     53.98    288.00      3.00     29.89      0.00     11.93     11.77
12/15 19:00      0.00      ----    453.01    129602       470       321     51.55    284.60      1.80     30.31      0.00     11.89     11.70
12/15 20:00      0.00      ----    453.01    129602       620       323     49.23    210.90      1.60     45.12      0.00     11.84     11.61
12/15 21:00      0.00      ----    453.01    129602       621       323     49.10    211.70      1.00     43.23      0.00     11.84     11.61
12/15 22:00      0.00      ----    453.02    129663       622       324     48.18    252.10      1.80     36.02      0.00     11.82     11.61
12/15 23:00      0.00      ----    453.02    129663       473       325     47.19    329.50      2.20     29.75      0.00     11.81     11.53